Linden, Missouri
Current Conditions -  °F | °C
As of 6:59 AM on Saturday 20 Dec 2014 (Local Time) from KSGF Reporting Station
Moderate Fog Moderate Fog  
Wind Chill: 37°   Ceiling: 200
Heat Index: 37°   Visibility: 0.5mi
Dew Point: 36°   Wind: 3mph
Humidity: 96%   Direction: 170°S
Pressure: 30.21"   Gusts: NA
Location:  37.1319°N, 93.0612°W
Report Text: KSGF 201259Z 17003KT 1/2SM FG VV002 03/02 A3021 RMK AO2 T00280022
Loading
Personal Weather Stations






























Interactive Weather Map New forecast layout! Learn more

10-Day Weather Forecast

Advertisements
Track Severe Weather on mobile